sensor_id;sensor_type;location;lat;lon;timestamp;temperature;humidity
2162;DHT22;1087;50.226;8.682;2023-05-07T00:02:21;18.50;99.90
2162;DHT22;1087;50.226;8.682;2023-05-07T00:04:48;18.50;99.90
2162;DHT22;1087;50.226;8.682;2023-05-07T00:07:14;18.50;99.90
2162;DHT22;1087;50.226;8.682;2023-05-07T00:09:40;18.50;99.90
2162;DHT22;1087;50.226;8.682;2023-05-07T00:12:05;18.50;99.90
2162;DHT22;1087;50.226;8.682;2023-05-07T00:14:31;18.50;99.90
2162;DHT22;1087;50.226;8.682;2023-05-07T00:16:56;18.50;99.90
2162;DHT22;1087;50.226;8.682;2023-05-07T00:19:22;18.50;99.90
2162;DHT22;1087;50.226;8.682;2023-05-07T00:21:47;18.50;99.90
2162;DHT22;1087;50.226;8.682;2023-05-07T00:24:13;18.50;99.90
2162;DHT22;1087;50.226;8.682;2023-05-07T00:26:38;18.50;99.90
2162;DHT22;1087;50.226;8.682;2023-05-07T00:29:04;18.50;99.90
2162;DHT22;1087;50.226;8.682;2023-05-07T00:31:30;18.50;99.90
2162;DHT22;1087;50.226;8.682;2023-05-07T00:33:55;18.50;99.90
2162;DHT22;1087;50.226;8.682;2023-05-07T00:36:20;18.50;99.90
2162;DHT22;1087;50.226;8.682;2023-05-07T00:38:46;18.50;99.90
2162;DHT22;1087;50.226;8.682;2023-05-07T00:41:11;18.50;99.90
2162;DHT22;1087;50.226;8.682;2023-05-07T00:43:38;18.50;99.90
2162;DHT22;1087;50.226;8.682;2023-05-07T00:46:03;18.40;99.90
2162;DHT22;1087;50.226;8.682;2023-05-07T00:48:30;18.30;99.90
2162;DHT22;1087;50.226;8.682;2023-05-07T00:50:56;18.30;99.90
2162;DHT22;1087;50.226;8.682;2023-05-07T00:53:22;18.40;99.90
2162;DHT22;1087;50.226;8.682;2023-05-07T00:55:48;18.40;99.90
2162;DHT22;1087;50.226;8.682;2023-05-07T00:58:13;18.40;99.90
2162;DHT22;1087;50.226;8.682;2023-05-07T01:00:39;18.40;99.90
2162;DHT22;1087;50.226;8.682;2023-05-07T01:03:05;18.40;99.90
2162;DHT22;1087;50.226;8.682;2023-05-07T01:05:30;18.40;99.90
2162;DHT22;1087;50.226;8.682;2023-05-07T01:07:56;18.50;99.90
2162;DHT22;1087;50.226;8.682;2023-05-07T01:10:23;18.40;99.90
2162;DHT22;1087;50.226;8.682;2023-05-07T01:12:50;18.40;99.90
2162;DHT22;1087;50.226;8.682;2023-05-07T01:15:16;18.30;99.90
2162;DHT22;1087;50.226;8.682;2023-05-07T01:17:43;18.30;99.90
2162;DHT22;1087;50.226;8.682;2023-05-07T01:20:09;18.30;99.90
2162;DHT22;1087;50.226;8.682;2023-05-07T01:22:38;18.30;99.90
2162;DHT22;1087;50.226;8.682;2023-05-07T01:25:07;18.30;99.90
2162;DHT22;1087;50.226;8.682;2023-05-07T01:27:33;18.30;99.90
2162;DHT22;1087;50.226;8.682;2023-05-07T01:30:00;18.30;99.90
2162;DHT22;1087;50.226;8.682;2023-05-07T01:32:40;18.30;99.90
2162;DHT22;1087;50.226;8.682;2023-05-07T01:35:11;18.30;99.90
2162;DHT22;1087;50.226;8.682;2023-05-07T01:37:38;18.30;99.90
2162;DHT22;1087;50.226;8.682;2023-05-07T01:40:04;18.30;99.90
2162;DHT22;1087;50.226;8.682;2023-05-07T01:42:30;18.10;99.90
2162;DHT22;1087;50.226;8.682;2023-05-07T01:44:56;18.10;99.90
2162;DHT22;1087;50.226;8.682;2023-05-07T01:47:23;18.10;99.90
2162;DHT22;1087;50.226;8.682;2023-05-07T01:49:49;18.10;99.90
2162;DHT22;1087;50.226;8.682;2023-05-07T01:52:15;18.10;99.90
2162;DHT22;1087;50.226;8.682;2023-05-07T01:54:41;18.10;99.90
2162;DHT22;1087;50.226;8.682;2023-05-07T01:57:06;18.10;99.90
2162;DHT22;1087;50.226;8.682;2023-05-07T01:59:32;18.10;99.90
2162;DHT22;1087;50.226;8.682;2023-05-07T02:01:57;18.10;99.90
2162;DHT22;1087;50.226;8.682;2023-05-07T02:04:23;18.10;99.90
2162;DHT22;1087;50.226;8.682;2023-05-07T02:06:49;18.20;99.90
2162;DHT22;1087;50.226;8.682;2023-05-07T02:09:15;18.20;99.90
2162;DHT22;1087;50.226;8.682;2023-05-07T02:11:41;18.10;99.90
2162;DHT22;1087;50.226;8.682;2023-05-07T02:14:06;18.20;99.90
2162;DHT22;1087;50.226;8.682;2023-05-07T02:16:32;18.20;99.90
2162;DHT22;1087;50.226;8.682;2023-05-07T02:18:57;18.20;99.90
2162;DHT22;1087;50.226;8.682;2023-05-07T02:21:24;18.10;99.90
2162;DHT22;1087;50.226;8.682;2023-05-07T02:23:50;18.10;99.90
2162;DHT22;1087;50.226;8.682;2023-05-07T02:26:15;18.10;99.90
2162;DHT22;1087;50.226;8.682;2023-05-07T02:28:41;18.20;99.90
2162;DHT22;1087;50.226;8.682;2023-05-07T02:31:07;18.20;99.90
2162;DHT22;1087;50.226;8.682;2023-05-07T02:33:32;18.10;99.90
2162;DHT22;1087;50.226;8.682;2023-05-07T02:36:08;18.10;99.90
2162;DHT22;1087;50.226;8.682;2023-05-07T02:38:34;18.10;99.90
2162;DHT22;1087;50.226;8.682;2023-05-07T02:41:00;18.10;99.90
2162;DHT22;1087;50.226;8.682;2023-05-07T02:43:25;18.10;99.90
2162;DHT22;1087;50.226;8.682;2023-05-07T02:46:03;18.10;99.90
2162;DHT22;1087;50.226;8.682;2023-05-07T02:48:29;18.10;99.90
2162;DHT22;1087;50.226;8.682;2023-05-07T02:50:55;18.10;99.90
2162;DHT22;1087;50.226;8.682;2023-05-07T02:53:20;18.10;99.90
2162;DHT22;1087;50.226;8.682;2023-05-07T02:55:46;18.10;99.90
2162;DHT22;1087;50.226;8.682;2023-05-07T02:58:11;18.10;99.90
2162;DHT22;1087;50.226;8.682;2023-05-07T03:00:37;18.10;99.90
2162;DHT22;1087;50.226;8.682;2023-05-07T03:03:02;18.00;99.90
2162;DHT22;1087;50.226;8.682;2023-05-07T03:05:28;18.10;99.90
2162;DHT22;1087;50.226;8.682;2023-05-07T03:07:54;18.00;99.90
2162;DHT22;1087;50.226;8.682;2023-05-07T03:10:19;18.00;99.90
2162;DHT22;1087;50.226;8.682;2023-05-07T03:12:45;18.00;99.90
2162;DHT22;1087;50.226;8.682;2023-05-07T03:15:10;18.00;99.90
2162;DHT22;1087;50.226;8.682;2023-05-07T03:17:38;18.00;99.90
2162;DHT22;1087;50.226;8.682;2023-05-07T03:20:04;18.00;99.90
2162;DHT22;1087;50.226;8.682;2023-05-07T03:22:29;18.00;99.90
2162;DHT22;1087;50.226;8.682;2023-05-07T03:24:55;18.00;99.90
2162;DHT22;1087;50.226;8.682;2023-05-07T03:27:20;18.00;99.90
2162;DHT22;1087;50.226;8.682;2023-05-07T03:29:46;17.90;99.90
2162;DHT22;1087;50.226;8.682;2023-05-07T03:32:11;17.90;99.90
2162;DHT22;1087;50.226;8.682;2023-05-07T03:34:37;18.00;99.90
2162;DHT22;1087;50.226;8.682;2023-05-07T03:37:02;17.80;99.90
2162;DHT22;1087;50.226;8.682;2023-05-07T03:39:28;17.70;99.90
2162;DHT22;1087;50.226;8.682;2023-05-07T03:41:53;17.70;99.90
2162;DHT22;1087;50.226;8.682;2023-05-07T03:44:19;17.60;99.90
2162;DHT22;1087;50.226;8.682;2023-05-07T03:46:45;17.50;99.90
2162;DHT22;1087;50.226;8.682;2023-05-07T03:49:10;17.60;99.90
2162;DHT22;1087;50.226;8.682;2023-05-07T03:51:36;17.60;99.90
2162;DHT22;1087;50.226;8.682;2023-05-07T03:54:02;17.70;99.90
2162;DHT22;1087;50.226;8.682;2023-05-07T03:56:27;17.70;99.90
2162;DHT22;1087;50.226;8.682;2023-05-07T03:58:53;17.70;99.90
2162;DHT22;1087;50.226;8.682;2023-05-07T04:01:19;17.80;99.90
2162;DHT22;1087;50.226;8.682;2023-05-07T04:03:45;17.70;99.90
2162;DHT22;1087;50.226;8.682;2023-05-07T04:06:10;17.70;99.90
2162;DHT22;1087;50.226;8.682;2023-05-07T04:08:36;17.70;99.90
2162;DHT22;1087;50.226;8.682;2023-05-07T04:11:01;17.70;99.90
2162;DHT22;1087;50.226;8.682;2023-05-07T04:13:27;17.70;99.90
2162;DHT22;1087;50.226;8.682;2023-05-07T04:15:54;17.70;99.90
2162;DHT22;1087;50.226;8.682;2023-05-07T04:18:20;17.70;99.90
2162;DHT22;1087;50.226;8.682;2023-05-07T04:20:49;17.70;99.90
2162;DHT22;1087;50.226;8.682;2023-05-07T04:23:15;17.80;99.90
2162;DHT22;1087;50.226;8.682;2023-05-07T04:25:41;17.80;99.90
2162;DHT22;1087;50.226;8.682;2023-05-07T04:28:06;17.80;99.90
2162;DHT22;1087;50.226;8.682;2023-05-07T04:30:32;17.80;99.90
2162;DHT22;1087;50.226;8.682;2023-05-07T04:32:57;17.70;99.90
2162;DHT22;1087;50.226;8.682;2023-05-07T04:35:23;17.70;99.90
2162;DHT22;1087;50.226;8.682;2023-05-07T04:37:49;17.60;99.90
2162;DHT22;1087;50.226;8.682;2023-05-07T04:40:14;17.60;99.90
2162;DHT22;1087;50.226;8.682;2023-05-07T04:42:40;17.60;99.90
2162;DHT22;1087;50.226;8.682;2023-05-07T04:45:05;17.60;99.90
2162;DHT22;1087;50.226;8.682;2023-05-07T04:47:31;17.70;99.90
2162;DHT22;1087;50.226;8.682;2023-05-07T04:49:58;17.70;99.90
2162;DHT22;1087;50.226;8.682;2023-05-07T04:52:23;17.70;99.90
2162;DHT22;1087;50.226;8.682;2023-05-07T04:54:49;17.70;99.90
2162;DHT22;1087;50.226;8.682;2023-05-07T04:57:14;17.70;99.90
2162;DHT22;1087;50.226;8.682;2023-05-07T04:59:40;17.70;99.90
2162;DHT22;1087;50.226;8.682;2023-05-07T05:02:05;17.70;99.90
2162;DHT22;1087;50.226;8.682;2023-05-07T05:04:31;17.80;99.90
2162;DHT22;1087;50.226;8.682;2023-05-07T05:06:56;17.70;99.90
2162;DHT22;1087;50.226;8.682;2023-05-07T05:09:22;17.70;99.90
2162;DHT22;1087;50.226;8.682;2023-05-07T05:11:47;17.70;99.90
2162;DHT22;1087;50.226;8.682;2023-05-07T05:14:13;17.60;99.90
2162;DHT22;1087;50.226;8.682;2023-05-07T05:16:38;17.60;99.90
2162;DHT22;1087;50.226;8.682;2023-05-07T05:19:04;17.60;99.90
2162;DHT22;1087;50.226;8.682;2023-05-07T05:21:31;17.60;99.90
2162;DHT22;1087;50.226;8.682;2023-05-07T05:23:57;17.60;99.90
2162;DHT22;1087;50.226;8.682;2023-05-07T05:26:22;17.60;99.90
2162;DHT22;1087;50.226;8.682;2023-05-07T05:28:48;17.50;99.90
2162;DHT22;1087;50.226;8.682;2023-05-07T05:31:13;17.50;99.90
2162;DHT22;1087;50.226;8.682;2023-05-07T05:33:39;17.60;99.90
2162;DHT22;1087;50.226;8.682;2023-05-07T05:36:05;17.60;99.90
2162;DHT22;1087;50.226;8.682;2023-05-07T05:38:31;17.60;99.90
2162;DHT22;1087;50.226;8.682;2023-05-07T05:40:57;17.60;99.90
2162;DHT22;1087;50.226;8.682;2023-05-07T05:43:23;17.70;99.90
2162;DHT22;1087;50.226;8.682;2023-05-07T05:45:49;17.70;99.90
2162;DHT22;1087;50.226;8.682;2023-05-07T05:48:14;17.80;99.90
2162;DHT22;1087;50.226;8.682;2023-05-07T05:50:41;17.70;99.90
2162;DHT22;1087;50.226;8.682;2023-05-07T05:53:07;17.70;99.90
2162;DHT22;1087;50.226;8.682;2023-05-07T05:55:33;17.70;99.90
2162;DHT22;1087;50.226;8.682;2023-05-07T05:58:02;17.70;99.90
2162;DHT22;1087;50.226;8.682;2023-05-07T06:00:28;17.60;99.90
2162;DHT22;1087;50.226;8.682;2023-05-07T06:02:53;17.60;99.90
2162;DHT22;1087;50.226;8.682;2023-05-07T06:05:19;17.50;99.90
2162;DHT22;1087;50.226;8.682;2023-05-07T06:07:45;17.60;99.90
2162;DHT22;1087;50.226;8.682;2023-05-07T06:10:10;17.70;99.90
2162;DHT22;1087;50.226;8.682;2023-05-07T06:12:36;17.80;99.90
2162;DHT22;1087;50.226;8.682;2023-05-07T06:15:01;17.80;99.90
2162;DHT22;1087;50.226;8.682;2023-05-07T06:17:27;17.90;99.90
2162;DHT22;1087;50.226;8.682;2023-05-07T06:19:52;17.90;99.90
2162;DHT22;1087;50.226;8.682;2023-05-07T06:22:18;17.80;99.90
2162;DHT22;1087;50.226;8.682;2023-05-07T06:24:43;17.70;99.90
2162;DHT22;1087;50.226;8.682;2023-05-07T06:27:09;17.70;99.90
2162;DHT22;1087;50.226;8.682;2023-05-07T06:29:35;17.80;99.90
2162;DHT22;1087;50.226;8.682;2023-05-07T06:32:08;17.90;99.90
2162;DHT22;1087;50.226;8.682;2023-05-07T06:34:34;17.90;99.90
2162;DHT22;1087;50.226;8.682;2023-05-07T06:36:59;17.90;99.90
2162;DHT22;1087;50.226;8.682;2023-05-07T06:39:25;17.90;99.90
2162;DHT22;1087;50.226;8.682;2023-05-07T06:41:50;17.90;99.90
2162;DHT22;1087;50.226;8.682;2023-05-07T06:44:16;17.80;99.90
2162;DHT22;1087;50.226;8.682;2023-05-07T06:46:41;17.90;99.90
2162;DHT22;1087;50.226;8.682;2023-05-07T06:49:08;18.00;99.90
2162;DHT22;1087;50.226;8.682;2023-05-07T06:51:33;18.00;99.90
2162;DHT22;1087;50.226;8.682;2023-05-07T06:53:59;18.00;99.90
2162;DHT22;1087;50.226;8.682;2023-05-07T06:56:24;18.20;99.90
2162;DHT22;1087;50.226;8.682;2023-05-07T06:58:50;18.10;99.90
2162;DHT22;1087;50.226;8.682;2023-05-07T07:01:16;18.10;99.90
2162;DHT22;1087;50.226;8.682;2023-05-07T07:03:41;18.20;99.90
2162;DHT22;1087;50.226;8.682;2023-05-07T07:06:07;18.30;99.90
2162;DHT22;1087;50.226;8.682;2023-05-07T07:08:32;18.30;99.90
2162;DHT22;1087;50.226;8.682;2023-05-07T07:10:58;18.30;99.90
2162;DHT22;1087;50.226;8.682;2023-05-07T07:13:23;18.40;99.90
2162;DHT22;1087;50.226;8.682;2023-05-07T07:15:49;18.40;99.90
2162;DHT22;1087;50.226;8.682;2023-05-07T07:18:15;18.30;99.90
2162;DHT22;1087;50.226;8.682;2023-05-07T07:20:42;18.40;99.90
2162;DHT22;1087;50.226;8.682;2023-05-07T07:23:09;18.40;99.90
2162;DHT22;1087;50.226;8.682;2023-05-07T07:25:35;18.40;99.90
2162;DHT22;1087;50.226;8.682;2023-05-07T07:28:01;18.40;99.90
2162;DHT22;1087;50.226;8.682;2023-05-07T07:30:26;18.50;99.90
2162;DHT22;1087;50.226;8.682;2023-05-07T07:32:52;18.50;99.90
2162;DHT22;1087;50.226;8.682;2023-05-07T07:35:18;18.50;99.90
2162;DHT22;1087;50.226;8.682;2023-05-07T07:37:43;18.50;99.90
2162;DHT22;1087;50.226;8.682;2023-05-07T07:40:09;18.50;99.90
2162;DHT22;1087;50.226;8.682;2023-05-07T07:42:35;18.50;99.90
2162;DHT22;1087;50.226;8.682;2023-05-07T07:45:00;18.60;99.90
2162;DHT22;1087;50.226;8.682;2023-05-07T07:47:26;18.70;99.90
2162;DHT22;1087;50.226;8.682;2023-05-07T07:49:52;18.70;99.90
2162;DHT22;1087;50.226;8.682;2023-05-07T07:52:18;18.70;99.90
2162;DHT22;1087;50.226;8.682;2023-05-07T07:54:44;18.80;99.90
2162;DHT22;1087;50.226;8.682;2023-05-07T07:57:10;18.70;99.90
2162;DHT22;1087;50.226;8.682;2023-05-07T07:59:35;18.80;99.90
2162;DHT22;1087;50.226;8.682;2023-05-07T08:02:01;18.90;99.90
2162;DHT22;1087;50.226;8.682;2023-05-07T08:04:26;18.90;99.90
2162;DHT22;1087;50.226;8.682;2023-05-07T08:06:52;19.00;99.90
2162;DHT22;1087;50.226;8.682;2023-05-07T08:09:19;19.00;99.90
2162;DHT22;1087;50.226;8.682;2023-05-07T08:11:45;19.00;99.90
2162;DHT22;1087;50.226;8.682;2023-05-07T08:14:11;19.00;99.90
2162;DHT22;1087;50.226;8.682;2023-05-07T08:16:37;19.10;99.90
2162;DHT22;1087;50.226;8.682;2023-05-07T08:19:02;19.10;99.90
2162;DHT22;1087;50.226;8.682;2023-05-07T08:21:28;19.10;99.90
2162;DHT22;1087;50.226;8.682;2023-05-07T08:23:54;19.20;99.90
2162;DHT22;1087;50.226;8.682;2023-05-07T08:26:20;19.10;99.90
2162;DHT22;1087;50.226;8.682;2023-05-07T08:28:45;19.10;99.90
2162;DHT22;1087;50.226;8.682;2023-05-07T08:31:11;19.10;99.90
2162;DHT22;1087;50.226;8.682;2023-05-07T08:33:36;19.20;99.90
2162;DHT22;1087;50.226;8.682;2023-05-07T08:36:04;19.20;99.90
2162;DHT22;1087;50.226;8.682;2023-05-07T08:38:29;19.30;99.90
2162;DHT22;1087;50.226;8.682;2023-05-07T08:40:55;19.30;99.90
2162;DHT22;1087;50.226;8.682;2023-05-07T08:43:21;19.30;99.90
2162;DHT22;1087;50.226;8.682;2023-05-07T08:45:55;19.30;99.90
2162;DHT22;1087;50.226;8.682;2023-05-07T08:48:25;19.40;99.90
2162;DHT22;1087;50.226;8.682;2023-05-07T08:50:51;19.30;99.90
2162;DHT22;1087;50.226;8.682;2023-05-07T08:53:17;19.30;99.90
2162;DHT22;1087;50.226;8.682;2023-05-07T08:55:43;19.30;99.90
2162;DHT22;1087;50.226;8.682;2023-05-07T08:58:08;19.30;99.90
2162;DHT22;1087;50.226;8.682;2023-05-07T09:00:36;19.40;99.90
2162;DHT22;1087;50.226;8.682;2023-05-07T09:03:01;19.50;99.90
2162;DHT22;1087;50.226;8.682;2023-05-07T09:05:28;19.60;99.90
2162;DHT22;1087;50.226;8.682;2023-05-07T09:07:53;19.60;99.90
2162;DHT22;1087;50.226;8.682;2023-05-07T09:10:21;19.60;99.90
2162;DHT22;1087;50.226;8.682;2023-05-07T09:12:47;19.70;99.90
2162;DHT22;1087;50.226;8.682;2023-05-07T09:15:13;19.70;99.90
2162;DHT22;1087;50.226;8.682;2023-05-07T09:17:38;19.80;99.90
2162;DHT22;1087;50.226;8.682;2023-05-07T09:20:06;19.70;99.90
2162;DHT22;1087;50.226;8.682;2023-05-07T09:22:33;19.70;99.90
2162;DHT22;1087;50.226;8.682;2023-05-07T09:24:58;19.70;99.90
2162;DHT22;1087;50.226;8.682;2023-05-07T09:27:25;19.80;99.90
2162;DHT22;1087;50.226;8.682;2023-05-07T09:29:51;19.80;99.90
2162;DHT22;1087;50.226;8.682;2023-05-07T09:32:16;19.80;99.90
2162;DHT22;1087;50.226;8.682;2023-05-07T09:34:42;19.70;99.90
2162;DHT22;1087;50.226;8.682;2023-05-07T09:37:08;19.80;99.90
2162;DHT22;1087;50.226;8.682;2023-05-07T09:39:44;19.80;99.90
2162;DHT22;1087;50.226;8.682;2023-05-07T09:42:10;20.00;99.90
2162;DHT22;1087;50.226;8.682;2023-05-07T09:44:37;20.00;99.90
2162;DHT22;1087;50.226;8.682;2023-05-07T09:47:05;20.10;99.90
2162;DHT22;1087;50.226;8.682;2023-05-07T09:49:36;20.10;99.90
2162;DHT22;1087;50.226;8.682;2023-05-07T09:52:04;20.10;99.90
2162;DHT22;1087;50.226;8.682;2023-05-07T09:54:32;20.20;99.90
2162;DHT22;1087;50.226;8.682;2023-05-07T09:56:59;20.20;99.90
2162;DHT22;1087;50.226;8.682;2023-05-07T09:59:28;20.20;99.90
2162;DHT22;1087;50.226;8.682;2023-05-07T10:01:57;20.30;99.90
2162;DHT22;1087;50.226;8.682;2023-05-07T10:04:25;20.30;99.90
2162;DHT22;1087;50.226;8.682;2023-05-07T10:06:51;20.40;99.90
2162;DHT22;1087;50.226;8.682;2023-05-07T10:09:17;20.50;99.90
2162;DHT22;1087;50.226;8.682;2023-05-07T10:11:43;20.60;99.90
2162;DHT22;1087;50.226;8.682;2023-05-07T10:14:10;20.70;99.90
2162;DHT22;1087;50.226;8.682;2023-05-07T10:16:36;20.80;99.90
2162;DHT22;1087;50.226;8.682;2023-05-07T10:19:03;20.80;99.90
2162;DHT22;1087;50.226;8.682;2023-05-07T10:21:30;20.80;99.90
2162;DHT22;1087;50.226;8.682;2023-05-07T10:24:16;20.80;99.90
2162;DHT22;1087;50.226;8.682;2023-05-07T10:26:47;21.00;99.90
2162;DHT22;1087;50.226;8.682;2023-05-07T10:34:36;21.10;99.90
2162;DHT22;1087;50.226;8.682;2023-05-07T10:37:03;21.20;99.90
2162;DHT22;1087;50.226;8.682;2023-05-07T10:39:29;21.30;99.90
2162;DHT22;1087;50.226;8.682;2023-05-07T10:41:55;21.30;99.90
2162;DHT22;1087;50.226;8.682;2023-05-07T10:44:30;21.30;99.90
2162;DHT22;1087;50.226;8.682;2023-05-07T10:47:13;21.40;99.90
2162;DHT22;1087;50.226;8.682;2023-05-07T10:52:18;21.40;99.90
2162;DHT22;1087;50.226;8.682;2023-05-07T10:54:44;21.30;99.90
2162;DHT22;1087;50.226;8.682;2023-05-07T10:59:57;21.50;99.90
2162;DHT22;1087;50.226;8.682;2023-05-07T11:02:23;21.50;99.90
2162;DHT22;1087;50.226;8.682;2023-05-07T11:05:20;21.50;99.90
2162;DHT22;1087;50.226;8.682;2023-05-07T11:07:57;21.50;99.90
2162;DHT22;1087;50.226;8.682;2023-05-07T11:10:26;21.50;99.90
2162;DHT22;1087;50.226;8.682;2023-05-07T11:13:09;21.60;99.90
2162;DHT22;1087;50.226;8.682;2023-05-07T11:15:39;21.60;99.90
2162;DHT22;1087;50.226;8.682;2023-05-07T11:18:07;21.70;99.90
2162;DHT22;1087;50.226;8.682;2023-05-07T11:20:56;21.70;99.90
2162;DHT22;1087;50.226;8.682;2023-05-07T11:28:28;21.90;99.90
2162;DHT22;1087;50.226;8.682;2023-05-07T11:30:53;22.00;99.90
2162;DHT22;1087;50.226;8.682;2023-05-07T11:33:19;22.00;99.90
2162;DHT22;1087;50.226;8.682;2023-05-07T11:35:45;22.00;99.90
2162;DHT22;1087;50.226;8.682;2023-05-07T11:38:12;22.10;99.90
2162;DHT22;1087;50.226;8.682;2023-05-07T11:43:16;22.10;99.90
2162;DHT22;1087;50.226;8.682;2023-05-07T11:45:41;22.10;99.90
2162;DHT22;1087;50.226;8.682;2023-05-07T11:48:07;22.10;99.90
2162;DHT22;1087;50.226;8.682;2023-05-07T11:50:32;22.20;99.90
2162;DHT22;1087;50.226;8.682;2023-05-07T11:52:58;22.20;99.90
2162;DHT22;1087;50.226;8.682;2023-05-07T11:55:24;22.20;99.90
2162;DHT22;1087;50.226;8.682;2023-05-07T11:57:51;22.30;99.90
2162;DHT22;1087;50.226;8.682;2023-05-07T12:00:17;22.30;99.90
2162;DHT22;1087;50.226;8.682;2023-05-07T12:02:43;22.30;99.90
2162;DHT22;1087;50.226;8.682;2023-05-07T12:05:10;22.30;99.90
2162;DHT22;1087;50.226;8.682;2023-05-07T12:07:36;22.40;99.90
2162;DHT22;1087;50.226;8.682;2023-05-07T12:10:08;22.40;99.90
2162;DHT22;1087;50.226;8.682;2023-05-07T12:12:46;22.30;99.90
2162;DHT22;1087;50.226;8.682;2023-05-07T12:15:22;22.40;99.90
2162;DHT22;1087;50.226;8.682;2023-05-07T12:17:47;22.40;99.90
2162;DHT22;1087;50.226;8.682;2023-05-07T12:20:14;22.30;99.90
2162;DHT22;1087;50.226;8.682;2023-05-07T12:22:40;22.30;99.90
2162;DHT22;1087;50.226;8.682;2023-05-07T12:25:06;22.40;99.90
2162;DHT22;1087;50.226;8.682;2023-05-07T12:27:32;22.40;99.90
2162;DHT22;1087;50.226;8.682;2023-05-07T12:29:58;22.40;99.90
2162;DHT22;1087;50.226;8.682;2023-05-07T12:32:24;22.40;99.90
2162;DHT22;1087;50.226;8.682;2023-05-07T12:34:51;22.40;99.90
2162;DHT22;1087;50.226;8.682;2023-05-07T12:37:16;22.40;99.90
2162;DHT22;1087;50.226;8.682;2023-05-07T12:39:48;22.50;99.90
2162;DHT22;1087;50.226;8.682;2023-05-07T12:42:20;22.50;99.90
2162;DHT22;1087;50.226;8.682;2023-05-07T12:44:51;22.60;99.90
2162;DHT22;1087;50.226;8.682;2023-05-07T12:47:17;22.60;99.90
2162;DHT22;1087;50.226;8.682;2023-05-07T12:49:43;22.60;99.90
2162;DHT22;1087;50.226;8.682;2023-05-07T12:52:11;22.70;99.90
2162;DHT22;1087;50.226;8.682;2023-05-07T12:54:37;22.70;99.90
2162;DHT22;1087;50.226;8.682;2023-05-07T12:57:08;22.70;99.90
2162;DHT22;1087;50.226;8.682;2023-05-07T12:59:41;22.80;99.90
2162;DHT22;1087;50.226;8.682;2023-05-07T13:02:07;22.80;99.90
2162;DHT22;1087;50.226;8.682;2023-05-07T13:04:33;22.80;99.90
2162;DHT22;1087;50.226;8.682;2023-05-07T13:06:59;22.90;99.90
2162;DHT22;1087;50.226;8.682;2023-05-07T13:09:25;22.90;99.90
2162;DHT22;1087;50.226;8.682;2023-05-07T13:11:51;23.00;99.90
2162;DHT22;1087;50.226;8.682;2023-05-07T13:14:16;23.00;99.90
2162;DHT22;1087;50.226;8.682;2023-05-07T13:16:42;23.00;99.90
2162;DHT22;1087;50.226;8.682;2023-05-07T13:19:07;23.10;99.90
2162;DHT22;1087;50.226;8.682;2023-05-07T13:21:33;23.10;99.90
2162;DHT22;1087;50.226;8.682;2023-05-07T13:23:58;23.10;99.90
2162;DHT22;1087;50.226;8.682;2023-05-07T13:26:25;23.00;99.90
2162;DHT22;1087;50.226;8.682;2023-05-07T13:28:51;23.00;99.90
2162;DHT22;1087;50.226;8.682;2023-05-07T13:31:17;23.00;99.90
2162;DHT22;1087;50.226;8.682;2023-05-07T13:33:42;23.00;99.90
2162;DHT22;1087;50.226;8.682;2023-05-07T13:36:08;23.10;99.90
2162;DHT22;1087;50.226;8.682;2023-05-07T13:38:34;23.20;99.90
2162;DHT22;1087;50.226;8.682;2023-05-07T13:41:00;23.20;99.90
2162;DHT22;1087;50.226;8.682;2023-05-07T13:43:25;23.20;99.90
2162;DHT22;1087;50.226;8.682;2023-05-07T13:45:51;23.30;99.90
2162;DHT22;1087;50.226;8.682;2023-05-07T13:48:17;23.30;99.90
2162;DHT22;1087;50.226;8.682;2023-05-07T13:50:42;23.40;99.90
2162;DHT22;1087;50.226;8.682;2023-05-07T13:53:08;23.40;99.90
2162;DHT22;1087;50.226;8.682;2023-05-07T13:55:34;23.40;99.90
2162;DHT22;1087;50.226;8.682;2023-05-07T13:58:01;23.40;99.90
2162;DHT22;1087;50.226;8.682;2023-05-07T14:00:27;23.40;99.90
2162;DHT22;1087;50.226;8.682;2023-05-07T14:02:54;23.50;99.90
2162;DHT22;1087;50.226;8.682;2023-05-07T14:05:20;23.60;99.90
2162;DHT22;1087;50.226;8.682;2023-05-07T14:07:45;23.60;99.90
2162;DHT22;1087;50.226;8.682;2023-05-07T14:10:12;23.70;99.90
2162;DHT22;1087;50.226;8.682;2023-05-07T14:12:38;23.70;99.90
2162;DHT22;1087;50.226;8.682;2023-05-07T14:15:04;23.80;99.90
2162;DHT22;1087;50.226;8.682;2023-05-07T14:17:29;23.80;99.90
2162;DHT22;1087;50.226;8.682;2023-05-07T14:19:55;23.80;99.90
2162;DHT22;1087;50.226;8.682;2023-05-07T14:22:21;23.70;99.90
2162;DHT22;1087;50.226;8.682;2023-05-07T14:24:48;23.80;99.90
2162;DHT22;1087;50.226;8.682;2023-05-07T14:27:14;23.80;99.90
2162;DHT22;1087;50.226;8.682;2023-05-07T14:29:40;23.70;99.90
2162;DHT22;1087;50.226;8.682;2023-05-07T14:32:05;23.70;99.90
2162;DHT22;1087;50.226;8.682;2023-05-07T14:34:31;23.80;99.90
2162;DHT22;1087;50.226;8.682;2023-05-07T14:36:58;23.90;99.90
2162;DHT22;1087;50.226;8.682;2023-05-07T14:39:23;23.90;99.90
2162;DHT22;1087;50.226;8.682;2023-05-07T14:41:49;23.90;99.90
2162;DHT22;1087;50.226;8.682;2023-05-07T14:44:14;23.80;99.90
2162;DHT22;1087;50.226;8.682;2023-05-07T14:46:40;23.80;99.90
2162;DHT22;1087;50.226;8.682;2023-05-07T14:49:06;23.80;99.90
2162;DHT22;1087;50.226;8.682;2023-05-07T14:51:32;23.70;99.90
2162;DHT22;1087;50.226;8.682;2023-05-07T14:53:58;23.80;99.90
2162;DHT22;1087;50.226;8.682;2023-05-07T14:56:24;23.80;99.90
2162;DHT22;1087;50.226;8.682;2023-05-07T14:58:49;23.80;99.90
2162;DHT22;1087;50.226;8.682;2023-05-07T15:01:15;23.80;99.90
2162;DHT22;1087;50.226;8.682;2023-05-07T15:03:40;23.80;99.90
2162;DHT22;1087;50.226;8.682;2023-05-07T15:06:06;23.80;99.90
2162;DHT22;1087;50.226;8.682;2023-05-07T15:08:31;23.90;99.90
2162;DHT22;1087;50.226;8.682;2023-05-07T15:10:57;23.80;99.90
2162;DHT22;1087;50.226;8.682;2023-05-07T15:13:22;23.80;99.90
2162;DHT22;1087;50.226;8.682;2023-05-07T15:15:48;23.80;99.90
2162;DHT22;1087;50.226;8.682;2023-05-07T15:18:15;23.80;99.90
2162;DHT22;1087;50.226;8.682;2023-05-07T15:20:41;23.80;99.90
2162;DHT22;1087;50.226;8.682;2023-05-07T15:23:08;23.80;99.90
2162;DHT22;1087;50.226;8.682;2023-05-07T15:25:36;23.60;99.90
2162;DHT22;1087;50.226;8.682;2023-05-07T15:28:02;23.60;99.90
2162;DHT22;1087;50.226;8.682;2023-05-07T15:30:27;23.50;99.90
2162;DHT22;1087;50.226;8.682;2023-05-07T15:32:53;23.40;99.90
2162;DHT22;1087;50.226;8.682;2023-05-07T15:35:19;23.40;99.90
2162;DHT22;1087;50.226;8.682;2023-05-07T15:37:47;23.40;99.90
2162;DHT22;1087;50.226;8.682;2023-05-07T15:40:14;23.40;99.90
2162;DHT22;1087;50.226;8.682;2023-05-07T15:42:40;23.40;99.90
2162;DHT22;1087;50.226;8.682;2023-05-07T15:45:06;23.30;99.90
2162;DHT22;1087;50.226;8.682;2023-05-07T15:47:33;23.30;99.90
2162;DHT22;1087;50.226;8.682;2023-05-07T15:50:00;23.30;99.90
2162;DHT22;1087;50.226;8.682;2023-05-07T15:52:26;23.30;99.90
2162;DHT22;1087;50.226;8.682;2023-05-07T15:54:52;23.30;99.90
2162;DHT22;1087;50.226;8.682;2023-05-07T15:57:18;23.20;99.90
2162;DHT22;1087;50.226;8.682;2023-05-07T15:59:43;23.20;99.90
2162;DHT22;1087;50.226;8.682;2023-05-07T16:02:09;23.20;99.90
2162;DHT22;1087;50.226;8.682;2023-05-07T16:04:34;23.20;99.90
2162;DHT22;1087;50.226;8.682;2023-05-07T16:07:00;23.10;99.90
2162;DHT22;1087;50.226;8.682;2023-05-07T16:09:25;23.10;99.90
2162;DHT22;1087;50.226;8.682;2023-05-07T16:11:53;23.10;99.90
2162;DHT22;1087;50.226;8.682;2023-05-07T16:14:19;23.10;99.90
2162;DHT22;1087;50.226;8.682;2023-05-07T16:16:44;23.10;99.90